sensor_id;sensor_type;location;lat;lon;timestamp;P1;durP1;ratioP1;P2;durP2;ratioP2
15669;SDS011;18524;45.190;5.732;2023-06-26T00:04:00;9.83;;;8.93;;
15669;SDS011;18524;45.190;5.732;2023-06-26T00:08:54;9.70;;;8.90;;
15669;SDS011;18524;45.190;5.732;2023-06-26T00:13:45;9.93;;;9.00;;
15669;SDS011;18524;45.190;5.732;2023-06-26T00:18:35;9.70;;;8.90;;
15669;SDS011;18524;45.190;5.732;2023-06-26T00:23:26;9.73;;;8.93;;
15669;SDS011;18524;45.190;5.732;2023-06-26T00:28:17;10.33;;;9.53;;
15669;SDS011;18524;45.190;5.732;2023-06-26T00:33:07;10.23;;;9.33;;
15669;SDS011;18524;45.190;5.732;2023-06-26T00:37:58;10.23;;;9.33;;
15669;SDS011;18524;45.190;5.732;2023-06-26T00:42:49;10.40;;;9.50;;
15669;SDS011;18524;45.190;5.732;2023-06-26T00:47:40;9.87;;;8.97;;
15669;SDS011;18524;45.190;5.732;2023-06-26T00:52:31;10.70;;;9.87;;
15669;SDS011;18524;45.190;5.732;2023-06-26T00:57:22;11.30;;;10.40;;
15669;SDS011;18524;45.190;5.732;2023-06-26T01:02:12;11.83;;;10.60;;
15669;SDS011;18524;45.190;5.732;2023-06-26T01:07:09;11.13;;;10.23;;
15669;SDS011;18524;45.190;5.732;2023-06-26T01:12:00;11.80;;;10.80;;
15669;SDS011;18524;45.190;5.732;2023-06-26T01:16:50;11.10;;;10.20;;
15669;SDS011;18524;45.190;5.732;2023-06-26T01:21:42;11.27;;;10.30;;
15669;SDS011;18524;45.190;5.732;2023-06-26T01:26:35;10.80;;;9.90;;
15669;SDS011;18524;45.190;5.732;2023-06-26T01:31:27;11.23;;;10.23;;
15669;SDS011;18524;45.190;5.732;2023-06-26T01:36:20;11.97;;;10.93;;
15669;SDS011;18524;45.190;5.732;2023-06-26T01:41:11;12.07;;;11.07;;
15669;SDS011;18524;45.190;5.732;2023-06-26T01:46:04;12.33;;;11.33;;
15669;SDS011;18524;45.190;5.732;2023-06-26T01:50:57;11.87;;;10.97;;
15669;SDS011;18524;45.190;5.732;2023-06-26T01:55:51;11.63;;;10.63;;
15669;SDS011;18524;45.190;5.732;2023-06-26T02:00:49;12.10;;;11.00;;
15669;SDS011;18524;45.190;5.732;2023-06-26T02:05:40;12.50;;;11.33;;
15669;SDS011;18524;45.190;5.732;2023-06-26T02:10:30;12.27;;;11.27;;
15669;SDS011;18524;45.190;5.732;2023-06-26T02:15:21;11.90;;;10.90;;
15669;SDS011;18524;45.190;5.732;2023-06-26T02:20:11;12.77;;;11.57;;
15669;SDS011;18524;45.190;5.732;2023-06-26T02:25:02;12.77;;;11.20;;
15669;SDS011;18524;45.190;5.732;2023-06-26T02:29:52;11.83;;;10.83;;
15669;SDS011;18524;45.190;5.732;2023-06-26T02:34:43;11.47;;;10.43;;
15669;SDS011;18524;45.190;5.732;2023-06-26T02:39:34;11.53;;;10.53;;
15669;SDS011;18524;45.190;5.732;2023-06-26T02:44:25;11.47;;;10.37;;
15669;SDS011;18524;45.190;5.732;2023-06-26T02:49:15;12.03;;;10.80;;
15669;SDS011;18524;45.190;5.732;2023-06-26T02:54:06;12.23;;;11.07;;
15669;SDS011;18524;45.190;5.732;2023-06-26T02:58:56;11.90;;;10.80;;
15669;SDS011;18524;45.190;5.732;2023-06-26T03:03:46;11.50;;;10.50;;
15669;SDS011;18524;45.190;5.732;2023-06-26T03:08:37;12.37;;;11.27;;
15669;SDS011;18524;45.190;5.732;2023-06-26T03:13:29;12.23;;;11.17;;
15669;SDS011;18524;45.190;5.732;2023-06-26T03:18:19;11.73;;;10.80;;
15669;SDS011;18524;45.190;5.732;2023-06-26T03:23:09;12.23;;;11.17;;
15669;SDS011;18524;45.190;5.732;2023-06-26T03:28:00;12.23;;;11.13;;
15669;SDS011;18524;45.190;5.732;2023-06-26T03:32:50;12.07;;;11.13;;
15669;SDS011;18524;45.190;5.732;2023-06-26T03:37:41;12.90;;;11.63;;
15669;SDS011;18524;45.190;5.732;2023-06-26T03:42:31;12.60;;;11.40;;
15669;SDS011;18524;45.190;5.732;2023-06-26T03:47:21;12.97;;;11.67;;
15669;SDS011;18524;45.190;5.732;2023-06-26T03:52:12;13.43;;;12.03;;
15669;SDS011;18524;45.190;5.732;2023-06-26T03:57:02;12.87;;;11.63;;
15669;SDS011;18524;45.190;5.732;2023-06-26T04:01:52;12.57;;;11.47;;
15669;SDS011;18524;45.190;5.732;2023-06-26T04:06:43;12.30;;;11.30;;
15669;SDS011;18524;45.190;5.732;2023-06-26T04:11:33;12.20;;;11.10;;
15669;SDS011;18524;45.190;5.732;2023-06-26T04:16:25;12.67;;;11.50;;
15669;SDS011;18524;45.190;5.732;2023-06-26T04:21:15;12.87;;;11.77;;
15669;SDS011;18524;45.190;5.732;2023-06-26T04:26:07;12.70;;;11.50;;
15669;SDS011;18524;45.190;5.732;2023-06-26T04:30:58;12.27;;;11.03;;
15669;SDS011;18524;45.190;5.732;2023-06-26T04:35:49;12.83;;;11.53;;
15669;SDS011;18524;45.190;5.732;2023-06-26T04:40:39;12.23;;;11.10;;
15669;SDS011;18524;45.190;5.732;2023-06-26T04:45:30;11.80;;;10.80;;
15669;SDS011;18524;45.190;5.732;2023-06-26T04:50:20;12.17;;;11.17;;
15669;SDS011;18524;45.190;5.732;2023-06-26T04:55:10;12.17;;;11.17;;
15669;SDS011;18524;45.190;5.732;2023-06-26T05:00:02;12.03;;;10.90;;
15669;SDS011;18524;45.190;5.732;2023-06-26T05:04:54;11.90;;;11.00;;
15669;SDS011;18524;45.190;5.732;2023-06-26T05:09:46;13.00;;;11.70;;
15669;SDS011;18524;45.190;5.732;2023-06-26T05:14:36;13.03;;;11.87;;
15669;SDS011;18524;45.190;5.732;2023-06-26T05:19:26;12.73;;;11.47;;
15669;SDS011;18524;45.190;5.732;2023-06-26T05:24:17;12.43;;;11.30;;
15669;SDS011;18524;45.190;5.732;2023-06-26T05:29:09;12.20;;;11.20;;
15669;SDS011;18524;45.190;5.732;2023-06-26T05:34:00;13.23;;;11.90;;
15669;SDS011;18524;45.190;5.732;2023-06-26T05:38:53;12.30;;;11.13;;
15669;SDS011;18524;45.190;5.732;2023-06-26T05:43:43;13.27;;;11.90;;
15669;SDS011;18524;45.190;5.732;2023-06-26T05:48:34;12.47;;;11.30;;
15669;SDS011;18524;45.190;5.732;2023-06-26T05:53:24;11.87;;;10.80;;
15669;SDS011;18524;45.190;5.732;2023-06-26T05:58:15;12.43;;;11.33;;
15669;SDS011;18524;45.190;5.732;2023-06-26T06:03:09;10.93;;;10.03;;
15669;SDS011;18524;45.190;5.732;2023-06-26T06:08:00;11.97;;;10.77;;
15669;SDS011;18524;45.190;5.732;2023-06-26T06:12:50;12.13;;;11.00;;
15669;SDS011;18524;45.190;5.732;2023-06-26T06:17:42;12.40;;;11.20;;
15669;SDS011;18524;45.190;5.732;2023-06-26T06:22:32;13.10;;;11.43;;
15669;SDS011;18524;45.190;5.732;2023-06-26T06:27:22;13.80;;;11.33;;
15669;SDS011;18524;45.190;5.732;2023-06-26T06:32:13;12.93;;;11.63;;
15669;SDS011;18524;45.190;5.732;2023-06-26T06:37:03;12.27;;;11.07;;
15669;SDS011;18524;45.190;5.732;2023-06-26T06:41:54;11.60;;;10.50;;
15669;SDS011;18524;45.190;5.732;2023-06-26T06:46:44;11.87;;;10.70;;
15669;SDS011;18524;45.190;5.732;2023-06-26T06:51:35;11.17;;;10.17;;
15669;SDS011;18524;45.190;5.732;2023-06-26T06:56:25;11.30;;;10.40;;
15669;SDS011;18524;45.190;5.732;2023-06-26T07:01:15;11.03;;;10.20;;
15669;SDS011;18524;45.190;5.732;2023-06-26T07:06:06;11.33;;;10.33;;
15669;SDS011;18524;45.190;5.732;2023-06-26T07:10:56;11.03;;;10.13;;
15669;SDS011;18524;45.190;5.732;2023-06-26T07:15:47;11.77;;;10.77;;
15669;SDS011;18524;45.190;5.732;2023-06-26T07:20:37;11.27;;;10.27;;
15669;SDS011;18524;45.190;5.732;2023-06-26T07:25:28;12.00;;;10.87;;
15669;SDS011;18524;45.190;5.732;2023-06-26T07:30:18;11.30;;;10.30;;
15669;SDS011;18524;45.190;5.732;2023-06-26T07:35:09;11.10;;;10.20;;
15669;SDS011;18524;45.190;5.732;2023-06-26T07:39:59;11.27;;;10.20;;
15669;SDS011;18524;45.190;5.732;2023-06-26T07:44:49;11.73;;;10.73;;
15669;SDS011;18524;45.190;5.732;2023-06-26T07:49:40;11.33;;;10.43;;
15669;SDS011;18524;45.190;5.732;2023-06-26T07:54:30;11.80;;;10.60;;
15669;SDS011;18524;45.190;5.732;2023-06-26T07:59:21;11.73;;;10.83;;
15669;SDS011;18524;45.190;5.732;2023-06-26T08:04:13;11.30;;;10.40;;
15669;SDS011;18524;45.190;5.732;2023-06-26T08:09:06;11.93;;;10.57;;
15669;SDS011;18524;45.190;5.732;2023-06-26T08:13:57;11.03;;;10.13;;
15669;SDS011;18524;45.190;5.732;2023-06-26T08:18:48;11.60;;;10.60;;
15669;SDS011;18524;45.190;5.732;2023-06-26T08:23:38;11.17;;;10.37;;
15669;SDS011;18524;45.190;5.732;2023-06-26T08:28:29;10.87;;;9.97;;
15669;SDS011;18524;45.190;5.732;2023-06-26T08:33:19;11.90;;;10.90;;
15669;SDS011;18524;45.190;5.732;2023-06-26T08:38:09;11.20;;;10.30;;
15669;SDS011;18524;45.190;5.732;2023-06-26T08:43:00;11.53;;;10.53;;
15669;SDS011;18524;45.190;5.732;2023-06-26T08:47:51;11.67;;;10.73;;
15669;SDS011;18524;45.190;5.732;2023-06-26T08:57:48;11.40;;;10.30;;
15669;SDS011;18524;45.190;5.732;2023-06-26T09:02:38;11.30;;;10.30;;
15669;SDS011;18524;45.190;5.732;2023-06-26T09:07:30;11.00;;;10.00;;
15669;SDS011;18524;45.190;5.732;2023-06-26T09:12:21;11.40;;;10.50;;
15669;SDS011;18524;45.190;5.732;2023-06-26T09:17:12;11.53;;;10.57;;
15669;SDS011;18524;45.190;5.732;2023-06-26T09:22:03;12.13;;;11.03;;
15669;SDS011;18524;45.190;5.732;2023-06-26T09:26:54;11.33;;;10.40;;
15669;SDS011;18524;45.190;5.732;2023-06-26T09:31:44;11.93;;;10.87;;
15669;SDS011;18524;45.190;5.732;2023-06-26T09:36:35;11.73;;;10.73;;
15669;SDS011;18524;45.190;5.732;2023-06-26T09:41:26;12.17;;;11.13;;
15669;SDS011;18524;45.190;5.732;2023-06-26T09:46:24;12.13;;;10.90;;
15669;SDS011;18524;45.190;5.732;2023-06-26T09:51:16;11.90;;;10.83;;
15669;SDS011;18524;45.190;5.732;2023-06-26T09:56:15;12.00;;;10.80;;
15669;SDS011;18524;45.190;5.732;2023-06-26T10:01:09;11.23;;;10.33;;
15669;SDS011;18524;45.190;5.732;2023-06-26T10:06:00;11.80;;;10.80;;
15669;SDS011;18524;45.190;5.732;2023-06-26T10:10:52;12.07;;;10.97;;
15669;SDS011;18524;45.190;5.732;2023-06-26T10:15:44;10.80;;;10.03;;
15669;SDS011;18524;45.190;5.732;2023-06-26T10:20:36;11.83;;;10.83;;
15669;SDS011;18524;45.190;5.732;2023-06-26T10:25:28;11.33;;;10.40;;
15669;SDS011;18524;45.190;5.732;2023-06-26T10:30:22;11.63;;;10.57;;
15669;SDS011;18524;45.190;5.732;2023-06-26T10:35:17;11.30;;;10.40;;
15669;SDS011;18524;45.190;5.732;2023-06-26T10:40:08;10.70;;;9.80;;
15669;SDS011;18524;45.190;5.732;2023-06-26T10:44:59;10.97;;;9.90;;
15669;SDS011;18524;45.190;5.732;2023-06-26T10:55:14;10.47;;;9.67;;
15669;SDS011;18524;45.190;5.732;2023-06-26T11:00:09;10.40;;;9.60;;
15669;SDS011;18524;45.190;5.732;2023-06-26T11:05:01;10.07;;;9.17;;
15669;SDS011;18524;45.190;5.732;2023-06-26T11:14:57;10.37;;;9.57;;
15669;SDS011;18524;45.190;5.732;2023-06-26T11:19:47;10.07;;;9.27;;
15669;SDS011;18524;45.190;5.732;2023-06-26T11:24:38;9.80;;;9.03;;
15669;SDS011;18524;45.190;5.732;2023-06-26T11:29:29;9.30;;;8.53;;
15669;SDS011;18524;45.190;5.732;2023-06-26T11:34:20;9.80;;;8.90;;
15669;SDS011;18524;45.190;5.732;2023-06-26T11:39:12;9.70;;;8.87;;
15669;SDS011;18524;45.190;5.732;2023-06-26T11:44:03;9.90;;;9.20;;
15669;SDS011;18524;45.190;5.732;2023-06-26T11:48:55;9.83;;;9.03;;
15669;SDS011;18524;45.190;5.732;2023-06-26T11:53:46;9.13;;;8.43;;
15669;SDS011;18524;45.190;5.732;2023-06-26T12:03:53;9.83;;;8.90;;
15669;SDS011;18524;45.190;5.732;2023-06-26T12:08:48;9.63;;;8.83;;
15669;SDS011;18524;45.190;5.732;2023-06-26T12:13:39;9.57;;;8.83;;
15669;SDS011;18524;45.190;5.732;2023-06-26T12:18:33;10.17;;;9.30;;
15669;SDS011;18524;45.190;5.732;2023-06-26T12:23:31;9.23;;;8.63;;
15669;SDS011;18524;45.190;5.732;2023-06-26T12:28:23;10.63;;;9.43;;
15669;SDS011;18524;45.190;5.732;2023-06-26T12:33:14;10.97;;;9.93;;
15669;SDS011;18524;45.190;5.732;2023-06-26T12:38:07;10.30;;;9.17;;
15669;SDS011;18524;45.190;5.732;2023-06-26T12:43:00;10.43;;;9.43;;
15669;SDS011;18524;45.190;5.732;2023-06-26T12:47:52;10.13;;;9.23;;
15669;SDS011;18524;45.190;5.732;2023-06-26T12:52:43;10.07;;;9.17;;
15669;SDS011;18524;45.190;5.732;2023-06-26T12:57:33;9.73;;;8.77;;
15669;SDS011;18524;45.190;5.732;2023-06-26T13:02:23;10.17;;;9.30;;
15669;SDS011;18524;45.190;5.732;2023-06-26T13:07:14;10.10;;;9.30;;
15669;SDS011;18524;45.190;5.732;2023-06-26T13:12:04;9.80;;;9.00;;
15669;SDS011;18524;45.190;5.732;2023-06-26T13:16:55;9.70;;;8.90;;
15669;SDS011;18524;45.190;5.732;2023-06-26T13:21:46;9.57;;;8.83;;
15669;SDS011;18524;45.190;5.732;2023-06-26T13:26:36;9.53;;;8.80;;
15669;SDS011;18524;45.190;5.732;2023-06-26T13:31:27;10.00;;;9.13;;
15669;SDS011;18524;45.190;5.732;2023-06-26T13:36:17;10.97;;;9.97;;
15669;SDS011;18524;45.190;5.732;2023-06-26T13:41:08;10.13;;;9.23;;
15669;SDS011;18524;45.190;5.732;2023-06-26T13:46:00;9.57;;;8.80;;
15669;SDS011;18524;45.190;5.732;2023-06-26T13:50:50;10.30;;;9.30;;
15669;SDS011;18524;45.190;5.732;2023-06-26T13:55:41;10.37;;;9.47;;
15669;SDS011;18524;45.190;5.732;2023-06-26T14:00:32;10.50;;;9.50;;
15669;SDS011;18524;45.190;5.732;2023-06-26T14:05:24;10.50;;;9.03;;
15669;SDS011;18524;45.190;5.732;2023-06-26T14:10:14;10.27;;;9.50;;
15669;SDS011;18524;45.190;5.732;2023-06-26T14:15:05;10.30;;;9.40;;
15669;SDS011;18524;45.190;5.732;2023-06-26T14:19:55;10.50;;;9.53;;
15669;SDS011;18524;45.190;5.732;2023-06-26T14:24:46;10.07;;;9.20;;
15669;SDS011;18524;45.190;5.732;2023-06-26T14:29:36;10.50;;;9.40;;
15669;SDS011;18524;45.190;5.732;2023-06-26T14:34:27;10.60;;;9.67;;
15669;SDS011;18524;45.190;5.732;2023-06-26T14:39:17;10.33;;;9.33;;
15669;SDS011;18524;45.190;5.732;2023-06-26T14:44:08;10.10;;;9.00;;
15669;SDS011;18524;45.190;5.732;2023-06-26T14:48:59;10.00;;;9.10;;
15669;SDS011;18524;45.190;5.732;2023-06-26T14:53:50;10.17;;;9.17;;
15669;SDS011;18524;45.190;5.732;2023-06-26T14:58:40;9.57;;;8.60;;
15669;SDS011;18524;45.190;5.732;2023-06-26T15:03:30;9.67;;;8.87;;
15669;SDS011;18524;45.190;5.732;2023-06-26T15:08:21;9.90;;;9.00;;
15669;SDS011;18524;45.190;5.732;2023-06-26T15:13:11;10.23;;;9.30;;
15669;SDS011;18524;45.190;5.732;2023-06-26T15:18:02;9.60;;;8.80;;
15669;SDS011;18524;45.190;5.732;2023-06-26T15:22:52;9.97;;;9.17;;
15669;SDS011;18524;45.190;5.732;2023-06-26T15:27:43;9.80;;;8.90;;
15669;SDS011;18524;45.190;5.732;2023-06-26T15:32:33;9.30;;;8.30;;
15669;SDS011;18524;45.190;5.732;2023-06-26T15:37:24;9.33;;;8.53;;
15669;SDS011;18524;45.190;5.732;2023-06-26T15:42:14;9.97;;;8.50;;
15669;SDS011;18524;45.190;5.732;2023-06-26T15:47:05;9.70;;;8.77;;
15669;SDS011;18524;45.190;5.732;2023-06-26T15:51:55;9.87;;;8.87;;
15669;SDS011;18524;45.190;5.732;2023-06-26T15:56:46;9.73;;;8.87;;
15669;SDS011;18524;45.190;5.732;2023-06-26T16:01:36;10.30;;;7.97;;
15669;SDS011;18524;45.190;5.732;2023-06-26T16:06:28;9.27;;;8.37;;
15669;SDS011;18524;45.190;5.732;2023-06-26T16:11:18;9.47;;;7.93;;
15669;SDS011;18524;45.190;5.732;2023-06-26T16:16:09;9.13;;;8.33;;
15669;SDS011;18524;45.190;5.732;2023-06-26T16:21:00;8.97;;;8.17;;
15669;SDS011;18524;45.190;5.732;2023-06-26T16:25:50;9.10;;;8.30;;
15669;SDS011;18524;45.190;5.732;2023-06-26T16:30:41;9.10;;;8.30;;
15669;SDS011;18524;45.190;5.732;2023-06-26T16:35:31;9.37;;;8.47;;
15669;SDS011;18524;45.190;5.732;2023-06-26T16:40:24;8.90;;;8.10;;
15669;SDS011;18524;45.190;5.732;2023-06-26T16:45:14;8.80;;;7.90;;
15669;SDS011;18524;45.190;5.732;2023-06-26T16:50:05;8.80;;;8.10;;
15669;SDS011;18524;45.190;5.732;2023-06-26T16:54:55;9.37;;;8.10;;
15669;SDS011;18524;45.190;5.732;2023-06-26T16:59:46;9.30;;;8.60;;
15669;SDS011;18524;45.190;5.732;2023-06-26T17:04:36;8.87;;;8.13;;
15669;SDS011;18524;45.190;5.732;2023-06-26T17:09:27;9.03;;;8.17;;
15669;SDS011;18524;45.190;5.732;2023-06-26T17:14:17;9.10;;;8.30;;
15669;SDS011;18524;45.190;5.732;2023-06-26T17:19:08;8.83;;;8.03;;
15669;SDS011;18524;45.190;5.732;2023-06-26T17:23:58;8.93;;;8.13;;
15669;SDS011;18524;45.190;5.732;2023-06-26T17:28:49;8.40;;;7.70;;
15669;SDS011;18524;45.190;5.732;2023-06-26T17:33:40;9.57;;;8.77;;
15669;SDS011;18524;45.190;5.732;2023-06-26T17:38:30;8.70;;;7.63;;
15669;SDS011;18524;45.190;5.732;2023-06-26T17:43:20;8.83;;;8.13;;
15669;SDS011;18524;45.190;5.732;2023-06-26T17:48:11;8.80;;;8.10;;
15669;SDS011;18524;45.190;5.732;2023-06-26T17:53:01;8.80;;;7.93;;
15669;SDS011;18524;45.190;5.732;2023-06-26T17:57:52;8.90;;;8.07;;
15669;SDS011;18524;45.190;5.732;2023-06-26T18:02:42;8.60;;;7.83;;
15669;SDS011;18524;45.190;5.732;2023-06-26T18:07:32;8.50;;;7.80;;
15669;SDS011;18524;45.190;5.732;2023-06-26T18:12:23;8.30;;;7.50;;
15669;SDS011;18524;45.190;5.732;2023-06-26T18:17:14;7.80;;;7.10;;
15669;SDS011;18524;45.190;5.732;2023-06-26T18:22:04;8.30;;;7.60;;
15669;SDS011;18524;45.190;5.732;2023-06-26T18:26:55;8.00;;;7.20;;
15669;SDS011;18524;45.190;5.732;2023-06-26T18:31:45;8.40;;;7.70;;
15669;SDS011;18524;45.190;5.732;2023-06-26T18:36:36;8.37;;;7.67;;
15669;SDS011;18524;45.190;5.732;2023-06-26T18:41:26;8.87;;;7.97;;
15669;SDS011;18524;45.190;5.732;2023-06-26T18:46:17;8.17;;;7.47;;
15669;SDS011;18524;45.190;5.732;2023-06-26T18:51:08;8.37;;;7.67;;
15669;SDS011;18524;45.190;5.732;2023-06-26T18:55:58;7.93;;;7.33;;
15669;SDS011;18524;45.190;5.732;2023-06-26T19:00:49;8.17;;;7.57;;
15669;SDS011;18524;45.190;5.732;2023-06-26T19:05:40;6.87;;;6.37;;
15669;SDS011;18524;45.190;5.732;2023-06-26T19:10:30;7.17;;;6.57;;
15669;SDS011;18524;45.190;5.732;2023-06-26T19:15:21;7.53;;;6.90;;
15669;SDS011;18524;45.190;5.732;2023-06-26T19:20:11;7.13;;;6.47;;
15669;SDS011;18524;45.190;5.732;2023-06-26T19:25:03;6.73;;;6.17;;
15669;SDS011;18524;45.190;5.732;2023-06-26T19:29:53;6.90;;;6.30;;
15669;SDS011;18524;45.190;5.732;2023-06-26T19:34:44;6.57;;;6.07;;
15669;SDS011;18524;45.190;5.732;2023-06-26T19:39:34;7.27;;;6.63;;
15669;SDS011;18524;45.190;5.732;2023-06-26T19:44:25;7.17;;;6.57;;
15669;SDS011;18524;45.190;5.732;2023-06-26T19:49:17;7.23;;;6.43;;
15669;SDS011;18524;45.190;5.732;2023-06-26T19:54:07;6.40;;;5.80;;
15669;SDS011;18524;45.190;5.732;2023-06-26T19:58:58;6.93;;;6.40;;
15669;SDS011;18524;45.190;5.732;2023-06-26T20:03:48;7.03;;;6.40;;
15669;SDS011;18524;45.190;5.732;2023-06-26T20:08:39;7.00;;;6.40;;
15669;SDS011;18524;45.190;5.732;2023-06-26T20:13:29;6.83;;;6.23;;
15669;SDS011;18524;45.190;5.732;2023-06-26T20:18:19;6.77;;;6.17;;
15669;SDS011;18524;45.190;5.732;2023-06-26T20:23:11;7.13;;;6.50;;
15669;SDS011;18524;45.190;5.732;2023-06-26T20:28:02;7.13;;;6.53;;
15669;SDS011;18524;45.190;5.732;2023-06-26T20:32:52;7.03;;;6.47;;
15669;SDS011;18524;45.190;5.732;2023-06-26T20:37:43;7.10;;;6.50;;
15669;SDS011;18524;45.190;5.732;2023-06-26T20:42:33;6.37;;;5.83;;
15669;SDS011;18524;45.190;5.732;2023-06-26T20:47:24;7.27;;;6.57;;
15669;SDS011;18524;45.190;5.732;2023-06-26T20:52:25;7.40;;;6.70;;
15669;SDS011;18524;45.190;5.732;2023-06-26T20:57:18;7.90;;;6.93;;
15669;SDS011;18524;45.190;5.732;2023-06-26T21:02:08;7.40;;;6.73;;
15669;SDS011;18524;45.190;5.732;2023-06-26T21:06:58;8.37;;;7.40;;
15669;SDS011;18524;45.190;5.732;2023-06-26T21:11:51;8.20;;;7.50;;
15669;SDS011;18524;45.190;5.732;2023-06-26T21:16:42;8.23;;;7.53;;
15669;SDS011;18524;45.190;5.732;2023-06-26T21:21:32;7.63;;;7.03;;
15669;SDS011;18524;45.190;5.732;2023-06-26T21:26:23;8.17;;;7.47;;
15669;SDS011;18524;45.190;5.732;2023-06-26T21:31:13;8.27;;;7.53;;
15669;SDS011;18524;45.190;5.732;2023-06-26T21:36:03;8.00;;;7.20;;
15669;SDS011;18524;45.190;5.732;2023-06-26T21:40:54;8.20;;;7.50;;
15669;SDS011;18524;45.190;5.732;2023-06-26T21:45:45;9.20;;;7.70;;
15669;SDS011;18524;45.190;5.732;2023-06-26T21:50:35;8.37;;;7.57;;
15669;SDS011;18524;45.190;5.732;2023-06-26T21:55:25;8.50;;;7.70;;
15669;SDS011;18524;45.190;5.732;2023-06-26T22:00:16;7.77;;;7.10;;
15669;SDS011;18524;45.190;5.732;2023-06-26T22:05:08;7.73;;;7.03;;
15669;SDS011;18524;45.190;5.732;2023-06-26T22:10:00;7.90;;;7.10;;
15669;SDS011;18524;45.190;5.732;2023-06-26T22:14:51;7.63;;;7.03;;
15669;SDS011;18524;45.190;5.732;2023-06-26T22:19:42;7.63;;;6.93;;
15669;SDS011;18524;45.190;5.732;2023-06-26T22:24:32;7.73;;;6.90;;
15669;SDS011;18524;45.190;5.732;2023-06-26T22:29:23;7.57;;;6.90;;
15669;SDS011;18524;45.190;5.732;2023-06-26T22:34:13;7.80;;;7.00;;
15669;SDS011;18524;45.190;5.732;2023-06-26T22:39:04;7.93;;;7.13;;
15669;SDS011;18524;45.190;5.732;2023-06-26T22:43:55;7.40;;;6.80;;
15669;SDS011;18524;45.190;5.732;2023-06-26T22:48:45;7.67;;;6.97;;
15669;SDS011;18524;45.190;5.732;2023-06-26T22:53:36;7.53;;;6.73;;
15669;SDS011;18524;45.190;5.732;2023-06-26T22:58:27;7.77;;;6.97;;
15669;SDS011;18524;45.190;5.732;2023-06-26T23:03:17;7.27;;;6.57;;
15669;SDS011;18524;45.190;5.732;2023-06-26T23:08:07;7.60;;;6.77;;
15669;SDS011;18524;45.190;5.732;2023-06-26T23:12:58;7.50;;;6.80;;
15669;SDS011;18524;45.190;5.732;2023-06-26T23:17:48;7.93;;;6.93;;
15669;SDS011;18524;45.190;5.732;2023-06-26T23:22:39;7.87;;;7.13;;
15669;SDS011;18524;45.190;5.732;2023-06-26T23:27:31;10.33;;;7.00;;
15669;SDS011;18524;45.190;5.732;2023-06-26T23:32:21;7.67;;;6.97;;
15669;SDS011;18524;45.190;5.732;2023-06-26T23:37:12;7.47;;;6.80;;
15669;SDS011;18524;45.190;5.732;2023-06-26T23:42:03;7.40;;;6.70;;
15669;SDS011;18524;45.190;5.732;2023-06-26T23:46:54;7.90;;;7.10;;
15669;SDS011;18524;45.190;5.732;2023-06-26T23:51:44;7.87;;;6.73;;
15669;SDS011;18524;45.190;5.732;2023-06-26T23:56:34;7.47;;;6.77;;
